Time;durP1;ratioP1;P1;durP2;ratioP2;P2;SDS_P1;SDS_P2;PMS_P1;PMS_P2;Temp;Humidity;BMP_temperature;BMP_pressure;BME280_temperature;BME280_humidity;BME280_pressure;Samples;Min_cycle;Max_cycle;Signal;HPM_P1;HPM_P2
2020/12/15 00:02:54;;;;;;;282.15;20.83;;;;;;;;;;8293685;28;20396;-74
2020/12/15 00:06:58;;;;;;;150.48;23.38;;;;;;;;;;8293730;28;20382;-74
2020/12/15 00:11:01;;;;;;;168.68;18.75;;;;;;;;;;8292750;28;20409;-74
2020/12/15 00:15:04;;;;;;;172.88;19.90;;;;;;;;;;8292744;28;20505;-73
2020/12/15 00:19:07;;;;;;;135.52;19.17;;;;;;;;;;8291168;28;20463;-73
2020/12/15 00:23:10;;;;;;;188.27;21.83;;;;;;;;;;8293782;28;20490;-74
2020/12/15 00:27:15;;;;;;;140.07;19.65;;;;;;;;;;8292952;28;20413;-74
2020/12/15 00:31:19;;;;;;;229.65;22.50;;;;;;;;;;8291257;28;20078;-74
2020/12/15 00:35:22;;;;;;;159.70;20.67;;;;;;;;;;8292849;28;20482;-74
2020/12/15 00:39:25;;;;;;;179.27;22.50;;;;;;;;;;8292687;28;20382;-73
2020/12/15 00:43:28;;;;;;;258.08;21.83;;;;;;;;;;8307932;28;20397;-74
2020/12/15 00:47:31;;;;;;;247.20;22.67;;;;;;;;;;8292828;28;20088;-74
2020/12/15 00:51:34;;;;;;;122.03;20.45;;;;;;;;;;8290922;28;20375;-73
2020/12/15 00:55:37;;;;;;;97.35;20.55;;;;;;;;;;8307303;28;20406;-74
2020/12/15 00:59:41;;;;;;;81.60;21.88;;;;;;;;;;8307251;28;20379;-73
2020/12/15 01:03:46;;;;;;;109.68;24.20;;;;;;;;;;8307116;28;20471;-73
2020/12/15 01:07:55;;;;;;;97.68;20.30;;;;;;;;;;8275415;28;20459;-74
2020/12/15 01:11:58;;;;;;;99.22;21.13;;;;;;;;;;8289583;28;20386;-74
2020/12/15 01:16:06;;;;;;;86.85;19.70;;;;;;;;;;8307236;28;20382;-74
2020/12/15 01:20:09;;;;;;;102.72;21.58;;;;;;;;;;8289658;28;20370;-74
2020/12/15 01:24:15;;;;;;;95.20;19.58;;;;;;;;;;8291749;28;20460;-74
2020/12/15 01:28:38;;;;;;;71.75;20.60;;;;;;;;;;8290378;28;20150;-74
2020/12/15 01:32:43;;;;;;;196.77;57.28;;;;;;;;;;8289349;28;20367;-73
2020/12/15 01:36:47;;;;;;;99.80;20.75;;;;;;;;;;8306416;28;20045;-74
2020/12/15 01:40:54;;;;;;;50.27;19.47;;;;;;;;;;8289758;28;20071;-74
2020/12/15 01:44:57;;;;;;;95.53;23.25;;;;;;;;;;8305895;28;20801;-73
2020/12/15 01:49:03;;;;;;;197.65;26.60;;;;;;;;;;8273974;28;20359;-74
2020/12/15 01:53:14;;;;;;;198.65;29.00;;;;;;;;;;8289501;28;20497;-74
2020/12/15 01:57:23;;;;;;;170.30;29.63;;;;;;;;;;8289955;28;20462;-74
2020/12/15 02:01:45;;;;;;;150.20;24.20;;;;;;;;;;8273884;28;20355;-74
2020/12/15 02:05:55;;;;;;;292.83;27.67;;;;;;;;;;8273310;28;20492;-74
2020/12/15 02:09:59;;;;;;;243.25;25.30;;;;;;;;;;8288285;28;20360;-74
2020/12/15 02:14:21;;;;;;;285.67;24.02;;;;;;;;;;8274891;28;20497;-74
2020/12/15 02:18:24;;;;;;;121.85;22.98;;;;;;;;;;8288552;28;20360;-74
2020/12/15 02:22:31;;;;;;;222.18;23.45;;;;;;;;;;8304278;28;20479;-74
2020/12/15 02:26:34;;;;;;;123.45;24.55;;;;;;;;;;8271474;28;20451;-73
2020/12/15 02:30:38;;;;;;;149.85;24.35;;;;;;;;;;8287850;28;20443;-74
2020/12/15 02:34:48;;;;;;;161.10;24.10;;;;;;;;;;8273434;28;20475;-74
2020/12/15 02:38:52;;;;;;;80.68;21.52;;;;;;;;;;8287470;28;20486;-74
2020/12/15 02:42:56;;;;;;;71.40;23.33;;;;;;;;;;8287386;28;20482;-74
2020/12/15 02:47:02;;;;;;;97.70;28.38;;;;;;;;;;8289582;28;20379;-74
2020/12/15 02:51:06;;;;;;;174.52;48.20;;;;;;;;;;8289653;28;20386;-74
2020/12/15 02:55:29;;;;;;;93.35;33.72;;;;;;;;;;8288921;28;20049;-74
2020/12/15 02:59:33;;;;;;;81.78;27.98;;;;;;;;;;8304627;28;20386;-74
2020/12/15 03:03:41;;;;;;;93.05;35.20;;;;;;;;;;8287408;28;20390;-74
2020/12/15 03:08:13;;;;;;;67.55;24.98;;;;;;;;;;8281490;28;20943;-73
2020/12/15 03:12:18;;;;;;;95.95;38.70;;;;;;;;;;8289421;28;20478;-74
2020/12/15 03:16:26;;;;;;;86.57;33.17;;;;;;;;;;8271793;28;20382;-74
2020/12/15 03:20:31;;;;;;;113.47;42.42;;;;;;;;;;8303900;28;20378;-74
2020/12/15 03:24:34;;;;;;;75.97;29.00;;;;;;;;;;8287937;28;20458;-74
2020/12/15 03:28:37;;;;;;;58.92;24.08;;;;;;;;;;8271429;28;20458;-74
2020/12/15 03:32:44;;;;;;;161.00;22.92;;;;;;;;;;8275756;28;20067;-74
2020/12/15 03:36:47;;;;;;;106.75;23.88;;;;;;;;;;8309638;28;20348;-74
2020/12/15 03:40:51;;;;;;;142.43;23.17;;;;;;;;;;8292701;28;20348;-74
2020/12/15 03:45:07;;;;;;;136.98;23.20;;;;;;;;;;8295600;28;20374;-74
2020/12/15 03:49:12;;;;;;;129.23;23.05;;;;;;;;;;8276744;28;20462;-74
2020/12/15 03:53:22;;;;;;;146.40;23.33;;;;;;;;;;8292652;28;20463;-74
2020/12/15 03:57:26;;;;;;;140.73;24.27;;;;;;;;;;8293039;28;20487;-74
2020/12/15 04:02:01;;;;;;;104.90;24.85;;;;;;;;;;8281927;28;20066;-73
2020/12/15 04:06:07;;;;;;;112.20;25.92;;;;;;;;;;8292884;28;20459;-74
2020/12/15 04:10:17;;;;;;;;;;;;;;;;;;8292676;28;20134;-74
2020/12/15 04:14:25;;;;;;;139.98;22.15;;;;;;;;;;8308388;28;20266;-74
2020/12/15 04:18:29;;;;;;;110.43;22.50;;;;;;;;;;8309277;28;20041;-73
2020/12/15 04:22:36;;;;;;;102.03;24.25;;;;;;;;;;8293069;28;20463;-74
2020/12/15 04:26:39;;;;;;;114.40;30.23;;;;;;;;;;8291353;28;20406;-74
2020/12/15 04:30:44;;;;;;;134.40;28.20;;;;;;;;;;8292658;28;20471;-74
2020/12/15 04:34:49;;;;;;;173.32;34.97;;;;;;;;;;8275311;28;20463;-74
2020/12/15 04:38:52;;;;;;;112.50;22.95;;;;;;;;;;8298755;28;20390;-74
2020/12/15 04:43:09;;;;;;;82.78;29.33;;;;;;;;;;8310945;28;20495;-74
2020/12/15 04:47:33;;;;;;;158.32;52.85;;;;;;;;;;8321103;28;20477;-74
2020/12/15 04:52:01;;;;;;;98.93;25.38;;;;;;;;;;8315255;28;20576;-74
2020/12/15 04:56:32;;;;;;;96.45;25.40;;;;;;;;;;8321470;28;20450;-74
2020/12/15 05:00:49;;;;;;;104.07;30.33;;;;;;;;;;8305347;28;20400;-74
2020/12/15 05:05:07;;;;;;;83.07;23.33;;;;;;;;;;8320309;28;20568;-74
2020/12/15 05:09:29;;;;;;;95.60;28.45;;;;;;;;;;8441172;27;821884;-72
2020/12/15 05:13:35;;;;;;;77.13;25.60;;;;;;;;;;8409784;27;20368;-72
2020/12/15 05:17:39;;;;;;;82.18;23.75;;;;;;;;;;8413472;27;20483;-73
2020/12/15 05:21:59;;;;;;;75.93;25.00;;;;;;;;;;8417274;27;20073;-73
2020/12/15 05:26:11;;;;;;;110.75;37.55;;;;;;;;;;8399473;27;20488;-73
2020/12/15 05:30:24;;;;;;;79.05;27.83;;;;;;;;;;8400278;27;20464;-72
2020/12/15 05:34:39;;;;;;;116.03;40.35;;;;;;;;;;8400105;27;20476;-72
2020/12/15 05:39:07;;;;;;;68.38;26.35;;;;;;;;;;8418514;27;20372;-72
2020/12/15 05:43:49;;;;;;;64.50;23.92;;;;;;;;;;8340897;27;20461;-73
2020/12/15 05:48:05;;;;;;;74.30;29.40;;;;;;;;;;8399810;27;20453;-73
2020/12/15 05:52:09;;;;;;;70.28;26.65;;;;;;;;;;8399345;27;20377;-73
2020/12/15 05:56:22;;;;;;;54.53;22.38;;;;;;;;;;8417820;27;20491;-73
2020/12/15 06:00:29;;;;;;;56.33;20.15;;;;;;;;;;8382498;27;20399;-73
2020/12/15 06:04:33;;;;;;;51.28;21.65;;;;;;;;;;8398707;27;20362;-73
2020/12/15 06:08:38;;;;;;;48.22;22.05;;;;;;;;;;8417356;27;20393;-73
2020/12/15 06:12:41;;;;;;;50.65;21.30;;;;;;;;;;8399285;27;20061;-73
2020/12/15 06:16:45;;;;;;;48.70;19.27;;;;;;;;;;8397992;27;20457;-73
2020/12/15 06:21:10;;;;;;;49.42;20.67;;;;;;;;;;8393517;27;20395;-73
2020/12/15 06:25:31;;;;;;;41.40;17.80;;;;;;;;;;8376495;27;20378;-73
2020/12/15 06:29:38;;;;;;;71.05;32.10;;;;;;;;;;8376381;27;20047;-75
2020/12/15 06:33:42;;;;;;;79.65;33.13;;;;;;;;;;8394083;27;20481;-73
2020/12/15 06:37:46;;;;;;;72.72;29.77;;;;;;;;;;8375486;27;20043;-72
2020/12/15 06:41:57;;;;;;;82.60;33.42;;;;;;;;;;8393509;27;20046;-73
2020/12/15 06:46:08;;;;;;;80.32;32.08;;;;;;;;;;8393843;27;20461;-75
2020/12/15 06:50:18;;;;;;;63.17;26.95;;;;;;;;;;8375356;27;20414;-73
2020/12/15 06:54:27;;;;;;;94.30;40.50;;;;;;;;;;8374764;27;20585;-73
2020/12/15 06:58:30;;;;;;;77.97;34.78;;;;;;;;;;8392731;27;20410;-73
2020/12/15 07:02:34;;;;;;;75.53;32.03;;;;;;;;;;8374726;27;20479;-75
2020/12/15 07:06:37;;;;;;;70.03;31.02;;;;;;;;;;8357454;27;20077;-74
2020/12/15 07:10:43;;;;;;;52.97;22.40;;;;;;;;;;8392798;27;20377;-74
2020/12/15 07:14:50;;;;;;;45.97;20.50;;;;;;;;;;8392624;27;20580;-74
2020/12/15 07:18:54;;;;;;;37.72;17.13;;;;;;;;;;8374436;27;20453;-74
2020/12/15 07:22:57;;;;;;;51.13;20.60;;;;;;;;;;8288206;28;20351;-74
2020/12/15 07:27:01;;;;;;;54.13;23.55;;;;;;;;;;8304733;28;20382;-74
2020/12/15 07:31:04;;;;;;;45.15;18.23;;;;;;;;;;8319613;28;20501;-74
2020/12/15 07:35:22;;;;;;;39.42;18.58;;;;;;;;;;8240988;28;20448;-74
2020/12/15 07:39:30;;;;;;;49.85;20.20;;;;;;;;;;8304087;28;20428;-75
2020/12/15 07:43:35;;;;;;;39.20;18.63;;;;;;;;;;8267781;28;20044;-74
2020/12/15 07:47:43;;;;;;;41.17;18.77;;;;;;;;;;8304028;28;20385;-74
2020/12/15 07:51:46;;;;;;;40.50;18.20;;;;;;;;;;8312107;27;20371;-74
2020/12/15 07:55:49;;;;;;;49.50;19.45;;;;;;;;;;8389993;27;20468;-74
2020/12/15 07:59:53;;;;;;;46.30;18.85;;;;;;;;;;8390518;27;20457;-74
2020/12/15 08:04:16;;;;;;;37.70;17.20;;;;;;;;;;8389762;27;20469;-74
2020/12/15 08:08:20;;;;;;;41.17;18.45;;;;;;;;;;8372377;27;20146;-73
2020/12/15 08:12:23;;;;;;;41.83;18.83;;;;;;;;;;8390900;27;20482;-74
2020/12/15 08:16:35;;;;;;;41.80;18.45;;;;;;;;;;8373582;27;20472;-75
2020/12/15 08:20:42;;;;;;;46.58;22.52;;;;;;;;;;8390197;27;20047;-74
2020/12/15 08:24:50;;;;;;;42.38;19.65;;;;;;;;;;8389662;27;20377;-74
2020/12/15 08:29:04;;;;;;;56.10;26.80;;;;;;;;;;8390371;27;20357;-74
2020/12/15 08:33:07;;;;;;;48.97;21.58;;;;;;;;;;8372691;27;20492;-74
2020/12/15 08:37:11;;;;;;;60.08;29.42;;;;;;;;;;8389956;27;20480;-74
2020/12/15 08:41:16;;;;;;;40.88;19.40;;;;;;;;;;8371548;27;20480;-73
2020/12/15 08:45:25;;;;;;;42.78;19.15;;;;;;;;;;8370853;27;20069;-74
2020/12/15 08:49:28;;;;;;;38.55;20.67;;;;;;;;;;8396842;27;20388;-74
2020/12/15 08:53:32;;;;;;;44.80;21.50;;;;;;;;;;8354620;27;20354;-74
2020/12/15 08:57:38;;;;;;;38.70;18.80;;;;;;;;;;8320355;28;20377;-73
2020/12/15 09:01:43;;;;;;;37.83;18.92;;;;;;;;;;8304155;28;20481;-73
2020/12/15 09:05:55;;;;;;;46.13;24.35;;;;;;;;;;8304195;28;20417;-74
2020/12/15 09:10:18;;;;;;;41.70;20.83;;;;;;;;;;8305743;28;20478;-73
2020/12/15 09:14:21;;;;;;;40.70;20.13;;;;;;;;;;8303848;28;20371;-74
2020/12/15 09:18:35;;;;;;;37.80;19.92;;;;;;;;;;8323522;28;20370;-74
2020/12/15 09:22:40;;;;;;;36.60;17.58;;;;;;;;;;8354477;28;20496;-74
2020/12/15 09:26:47;;;;;;;42.78;21.08;;;;;;;;;;8354456;28;20354;-74
2020/12/15 09:30:51;;;;;;;52.28;27.00;;;;;;;;;;8317893;28;20428;-74
2020/12/15 09:34:57;;;;;;;168.93;58.83;;;;;;;;;;8284398;28;20398;-74
2020/12/15 09:39:01;;;;;;;36.80;19.17;;;;;;;;;;8285242;28;20427;-74
2020/12/15 09:43:11;;;;;;;43.00;20.10;;;;;;;;;;8220057;28;20379;-74
2020/12/15 09:47:29;;;;;;;32.80;18.48;;;;;;;;;;8284634;28;20371;-73
2020/12/15 09:51:42;;;;;;;38.08;20.45;;;;;;;;;;8236651;28;20478;-74
2020/12/15 09:55:46;;;;;;;35.13;17.17;;;;;;;;;;8245998;28;20378;-72
2020/12/15 09:59:54;;;;;;;35.67;20.65;;;;;;;;;;8258380;28;20378;-73
2020/12/15 10:04:00;;;;;;;39.72;20.92;;;;;;;;;;8287615;28;20473;-73
2020/12/15 10:08:03;;;;;;;43.15;23.13;;;;;;;;;;8326605;28;20074;-73
2020/12/15 10:12:08;;;;;;;42.90;23.00;;;;;;;;;;8325819;28;20401;-73
2020/12/15 10:16:13;;;;;;;38.88;21.98;;;;;;;;;;8342921;28;20500;-73
2020/12/15 10:20:18;;;;;;;45.22;21.27;;;;;;;;;;8360396;28;20488;-73
2020/12/15 10:24:26;;;;;;;41.00;19.75;;;;;;;;;;8315246;28;20366;-73
2020/12/15 10:28:33;;;;;;;52.00;23.85;;;;;;;;;;8296796;28;20520;-73
2020/12/15 10:32:37;;;;;;;52.85;24.15;;;;;;;;;;8307875;28;20364;-73
2020/12/15 10:36:41;;;;;;;40.13;20.13;;;;;;;;;;8326312;28;20359;-73
2020/12/15 10:40:47;;;;;;;37.28;18.98;;;;;;;;;;8325198;28;20070;-73
2020/12/15 10:44:58;;;;;;;41.13;19.85;;;;;;;;;;8307365;28;20052;-74
2020/12/15 10:49:09;;;;;;;42.08;20.02;;;;;;;;;;8309792;28;20447;-73
2020/12/15 10:53:15;;;;;;;57.15;25.08;;;;;;;;;;8274748;28;20359;-74
2020/12/15 10:57:20;;;;;;;44.50;21.10;;;;;;;;;;8307097;28;20358;-74
2020/12/15 11:01:26;;;;;;;45.97;19.55;;;;;;;;;;8307361;28;20413;-74
2020/12/15 11:05:38;;;;;;;41.13;21.55;;;;;;;;;;8325993;28;20489;-75
2020/12/15 11:09:42;;;;;;;53.03;22.50;;;;;;;;;;8322167;28;20048;-74
2020/12/15 11:13:51;;;;;;;57.47;23.88;;;;;;;;;;8290453;28;20048;-74
2020/12/15 11:17:57;;;;;;;61.72;24.52;;;;;;;;;;8273910;28;20386;-74
2020/12/15 11:22:03;;;;;;;53.78;24.33;;;;;;;;;;8273457;28;20382;-74
2020/12/15 11:26:08;;;;;;;56.15;25.15;;;;;;;;;;8273037;28;20048;-74
2020/12/15 11:30:13;;;;;;;59.03;25.35;;;;;;;;;;8323175;28;20359;-74
2020/12/15 11:34:19;;;;;;;69.38;28.20;;;;;;;;;;8053779;28;20528;-74
2020/12/15 11:38:27;;;;;;;65.75;26.13;;;;;;;;;;8322641;28;20056;-74
2020/12/15 11:42:32;;;;;;;50.30;22.50;;;;;;;;;;8306806;28;20486;-74
2020/12/15 11:46:41;;;;;;;49.53;21.52;;;;;;;;;;8208487;28;20036;-74
2020/12/15 11:50:47;;;;;;;;;;;;;;;;;;8324487;28;20486;-74
2020/12/15 11:54:51;;;;;;;66.60;23.80;;;;;;;;;;8268734;28;20266;-74
2020/12/15 11:58:56;;;;;;;82.13;30.30;;;;;;;;;;8305945;28;20471;-74
2020/12/15 12:03:01;;;;;;;73.63;33.72;;;;;;;;;;8270066;28;20048;-72
2020/12/15 12:07:09;;;;;;;121.13;36.22;;;;;;;;;;8302728;28;20359;-72
2020/12/15 12:11:15;;;;;;;117.05;39.10;;;;;;;;;;8300496;28;20055;-73
2020/12/15 12:15:18;;;;;;;156.43;53.90;;;;;;;;;;8295461;28;20482;-73
2020/12/15 12:19:22;;;;;;;137.30;47.17;;;;;;;;;;8319389;28;20523;-73
2020/12/15 12:23:25;;;;;;;116.60;35.05;;;;;;;;;;8319249;28;20077;-73
2020/12/15 12:27:30;;;;;;;53.13;23.40;;;;;;;;;;8252897;28;20348;-72
2020/12/15 12:31:40;;;;;;;57.53;25.10;;;;;;;;;;8319657;28;20044;-73
2020/12/15 12:35:43;;;;;;;51.08;22.73;;;;;;;;;;8288753;28;20377;-73
2020/12/15 12:39:46;;;;;;;57.65;26.33;;;;;;;;;;8304607;28;20496;-72
2020/12/15 12:43:51;;;;;;;109.95;38.63;;;;;;;;;;8322788;28;20408;-72
2020/12/15 12:47:54;;;;;;;75.10;28.40;;;;;;;;;;8322578;28;20693;-73
2020/12/15 12:52:00;;;;;;;47.35;24.00;;;;;;;;;;8305110;28;20482;-73
2020/12/15 12:56:06;;;;;;;55.25;22.65;;;;;;;;;;8304703;28;20369;-73
2020/12/15 13:00:10;;;;;;;52.65;22.75;;;;;;;;;;8322089;28;20492;-72
2020/12/15 13:04:14;;;;;;;63.05;27.13;;;;;;;;;;8304312;28;20055;-75
2020/12/15 13:08:18;;;;;;;67.78;30.70;;;;;;;;;;8305363;28;20492;-73
2020/12/15 13:12:22;;;;;;;54.40;25.48;;;;;;;;;;8252641;28;20475;-72
2020/12/15 13:16:25;;;;;;;55.88;24.55;;;;;;;;;;8235911;28;20177;-72
2020/12/15 13:20:29;;;;;;;105.65;38.95;;;;;;;;;;8252196;28;20041;-73
2020/12/15 13:24:32;;;;;;;76.28;29.05;;;;;;;;;;8252658;28;20387;-74
2020/12/15 13:28:37;;;;;;;214.30;66.15;;;;;;;;;;8254598;28;20455;-74
2020/12/15 13:32:42;;;;;;;644.83;243.07;;;;;;;;;;8259038;28;20534;-74
2020/12/15 13:36:45;;;;;;;136.07;47.83;;;;;;;;;;8242297;28;20378;-74
2020/12/15 13:40:48;;;;;;;49.08;22.63;;;;;;;;;;8241519;28;20151;-73
2020/12/15 13:44:53;;;;;;;185.18;54.25;;;;;;;;;;8210282;28;20402;-74
2020/12/15 13:48:58;;;;;;;177.77;58.20;;;;;;;;;;8257674;28;20370;-74
2020/12/15 13:53:01;;;;;;;161.38;53.28;;;;;;;;;;8327826;28;20048;-74
2020/12/15 13:57:06;;;;;;;152.82;53.60;;;;;;;;;;8309542;28;20062;-74
2020/12/15 14:01:09;;;;;;;139.75;49.92;;;;;;;;;;8309797;28;20382;-74
2020/12/15 14:05:13;;;;;;;90.00;37.25;;;;;;;;;;8309551;28;20470;-73
2020/12/15 14:09:16;;;;;;;84.32;32.38;;;;;;;;;;8334367;28;20056;-73
2020/12/15 14:13:19;;;;;;;80.88;35.47;;;;;;;;;;8325406;28;20048;-73
2020/12/15 14:17:24;;;;;;;137.48;58.08;;;;;;;;;;8322858;28;20355;-73
2020/12/15 14:21:27;;;;;;;129.55;48.60;;;;;;;;;;8306496;28;20467;-72
2020/12/15 14:25:32;;;;;;;165.20;51.60;;;;;;;;;;8309631;28;20378;-73
2020/12/15 14:29:36;;;;;;;130.85;52.88;;;;;;;;;;8325741;28;20382;-73
2020/12/15 14:33:39;;;;;;;100.15;37.65;;;;;;;;;;8309371;28;20067;-73
2020/12/15 14:37:42;;;;;;;146.63;48.72;;;;;;;;;;8308278;28;20386;-72
2020/12/15 14:41:46;;;;;;;110.63;39.72;;;;;;;;;;8323212;28;20409;-73
2020/12/15 14:45:52;;;;;;;173.93;62.42;;;;;;;;;;8301435;28;20482;-73
2020/12/15 14:49:55;;;;;;;131.07;53.55;;;;;;;;;;8291927;28;20482;-72
2020/12/15 14:54:00;;;;;;;244.05;93.07;;;;;;;;;;8275372;28;20378;-73
2020/12/15 14:58:05;;;;;;;209.15;65.22;;;;;;;;;;8274606;28;20478;-73
2020/12/15 15:02:08;;;;;;;92.55;38.60;;;;;;;;;;8301494;28;20070;-73
2020/12/15 15:06:12;;;;;;;122.63;52.17;;;;;;;;;;8358651;28;20378;-73
2020/12/15 15:10:15;;;;;;;162.50;63.55;;;;;;;;;;8320202;28;20405;-73
2020/12/15 15:14:19;;;;;;;117.72;45.70;;;;;;;;;;8307069;28;20367;-73
2020/12/15 15:18:22;;;;;;;330.25;129.23;;;;;;;;;;8311571;28;20450;-73
2020/12/15 15:22:34;;;;;;;178.57;86.05;;;;;;;;;;8316690;28;20378;-72
2020/12/15 15:26:38;;;;;;;173.93;71.63;;;;;;;;;;8315525;28;20352;-71
2020/12/15 15:30:42;;;;;;;167.27;73.28;;;;;;;;;;8265572;28;20361;-71
2020/12/15 15:34:46;;;;;;;291.20;93.38;;;;;;;;;;8287636;28;20471;-72
2020/12/15 15:38:50;;;;;;;212.38;77.53;;;;;;;;;;8290976;28;20493;-72
2020/12/15 15:42:54;;;;;;;150.48;58.05;;;;;;;;;;8288846;28;20382;-74
2020/12/15 15:47:01;;;;;;;138.05;54.47;;;;;;;;;;8270019;28;20470;-72
2020/12/15 15:51:04;;;;;;;138.73;54.85;;;;;;;;;;8289985;28;20486;-72
2020/12/15 15:55:10;;;;;;;87.63;37.00;;;;;;;;;;8270571;28;20409;-70
2020/12/15 15:59:14;;;;;;;113.78;40.65;;;;;;;;;;8290888;28;20070;-70
2020/12/15 16:03:18;;;;;;;76.65;32.95;;;;;;;;;;8287839;28;20048;-70
2020/12/15 16:07:21;;;;;;;84.50;35.25;;;;;;;;;;8254133;28;20475;-70
2020/12/15 16:11:24;;;;;;;114.57;39.28;;;;;;;;;;8272129;28;20481;-70
2020/12/15 16:15:29;;;;;;;183.75;48.63;;;;;;;;;;8253974;28;20366;-70
2020/12/15 16:19:32;;;;;;;216.98;63.30;;;;;;;;;;8269465;28;20452;-70
2020/12/15 16:23:42;;;;;;;243.77;69.40;;;;;;;;;;8288077;28;20473;-70
2020/12/15 16:27:46;;;;;;;332.02;81.93;;;;;;;;;;8315375;28;20458;-70
2020/12/15 16:31:51;;;;;;;136.25;45.53;;;;;;;;;;8322220;28;20374;-70
2020/12/15 16:35:55;;;;;;;121.25;46.05;;;;;;;;;;8303221;28;20071;-70
2020/12/15 16:39:58;;;;;;;120.35;45.00;;;;;;;;;;8322653;28;20382;-70
2020/12/15 16:44:01;;;;;;;122.63;46.22;;;;;;;;;;8322657;28;20466;-70
2020/12/15 16:48:05;;;;;;;164.55;59.85;;;;;;;;;;8298729;28;20075;-72
2020/12/15 16:52:09;;;;;;;185.50;63.25;;;;;;;;;;8256170;28;20444;-73
2020/12/15 16:56:13;;;;;;;149.30;49.08;;;;;;;;;;8256276;28;20475;-72
2020/12/15 17:00:17;;;;;;;114.50;45.15;;;;;;;;;;8255164;28;20477;-73
2020/12/15 17:04:20;;;;;;;176.20;64.80;;;;;;;;;;8270945;28;20375;-72
2020/12/15 17:08:23;;;;;;;177.77;62.50;;;;;;;;;;8256768;28;20363;-74
2020/12/15 17:12:27;;;;;;;167.77;59.63;;;;;;;;;;8256533;28;20376;-73
2020/12/15 17:16:32;;;;;;;176.63;69.72;;;;;;;;;;8254181;28;20497;-74
2020/12/15 17:20:36;;;;;;;170.70;70.25;;;;;;;;;;8255049;28;20367;-74
2020/12/15 17:24:40;;;;;;;184.80;70.63;;;;;;;;;;8238505;28;20471;-73
2020/12/15 17:28:43;;;;;;;171.38;68.10;;;;;;;;;;8255936;28;20133;-73
2020/12/15 17:32:49;;;;;;;157.02;68.15;;;;;;;;;;8270583;28;20468;-74
2020/12/15 17:36:55;;;;;;;131.30;54.92;;;;;;;;;;8238111;28;20075;-73
2020/12/15 17:40:58;;;;;;;124.93;50.60;;;;;;;;;;8256387;28;20471;-73
2020/12/15 17:45:01;;;;;;;149.10;56.38;;;;;;;;;;8255039;28;20407;-73
2020/12/15 17:49:09;;;;;;;135.35;51.00;;;;;;;;;;8274227;28;20068;-74
2020/12/15 17:53:15;;;;;;;199.93;75.80;;;;;;;;;;8288574;28;20145;-73
2020/12/15 17:57:18;;;;;;;221.13;85.10;;;;;;;;;;8270529;28;20348;-73
2020/12/15 18:01:21;;;;;;;286.45;102.13;;;;;;;;;;8269532;28;20408;-73
2020/12/15 18:05:26;;;;;;;207.40;85.75;;;;;;;;;;8254280;28;20497;-73
2020/12/15 18:09:28;;;;;;;215.55;86.68;;;;;;;;;;8287814;28;20075;-74
2020/12/15 18:13:32;;;;;;;192.75;81.10;;;;;;;;;;8288272;28;20098;-73
2020/12/15 18:17:35;;;;;;;201.77;88.90;;;;;;;;;;8276273;28;20501;-74
2020/12/15 18:21:43;;;;;;;237.38;97.55;;;;;;;;;;8277464;28;20063;-74
2020/12/15 18:25:52;;;;;;;245.13;94.65;;;;;;;;;;8294176;28;20437;-73
2020/12/15 18:30:00;;;;;;;289.98;110.65;;;;;;;;;;8293632;28;20367;-73
2020/12/15 18:34:10;;;;;;;296.53;112.53;;;;;;;;;;8243356;28;20409;-73
2020/12/15 18:38:17;;;;;;;254.10;105.85;;;;;;;;;;8293509;28;20360;-73
2020/12/15 18:42:26;;;;;;;226.65;97.15;;;;;;;;;;8293168;28;20492;-74
2020/12/15 18:46:29;;;;;;;318.17;128.65;;;;;;;;;;8258300;28;20060;-73
2020/12/15 18:50:39;;;;;;;211.02;86.40;;;;;;;;;;8292497;28;20481;-74
2020/12/15 18:54:47;;;;;;;256.80;97.63;;;;;;;;;;8293237;28;20049;-73
2020/12/15 18:58:56;;;;;;;258.17;104.82;;;;;;;;;;8292028;28;20360;-73
2020/12/15 19:02:59;;;;;;;163.18;69.82;;;;;;;;;;8292911;28;20463;-73
2020/12/15 19:07:08;;;;;;;161.85;65.15;;;;;;;;;;8264796;28;20394;-73
2020/12/15 19:11:16;;;;;;;179.27;73.97;;;;;;;;;;8292405;28;20477;-73
2020/12/15 19:15:25;;;;;;;211.17;86.33;;;;;;;;;;8292820;28;20513;-73
2020/12/15 19:19:33;;;;;;;;;;;;;;;;;;8276107;28;20450;-73
2020/12/15 19:23:41;;;;;;;274.10;112.13;;;;;;;;;;8274141;28;20357;-73
2020/12/15 19:27:48;;;;;;;173.38;70.45;;;;;;;;;;8274679;28;20356;-73
2020/12/15 19:31:57;;;;;;;189.73;75.50;;;;;;;;;;8291405;28;20386;-73
2020/12/15 19:36:07;;;;;;;275.23;86.47;;;;;;;;;;8274675;28;20419;-73
2020/12/15 19:40:23;;;;;;;252.00;86.30;;;;;;;;;;8256392;28;20373;-73
2020/12/15 19:44:31;;;;;;;242.35;83.75;;;;;;;;;;8291276;28;20101;-73
2020/12/15 19:48:35;;;;;;;225.13;81.38;;;;;;;;;;8291685;28;20466;-73
2020/12/15 19:52:43;;;;;;;200.07;79.35;;;;;;;;;;8290835;28;20066;-72
2020/12/15 19:56:54;;;;;;;223.73;88.50;;;;;;;;;;8290723;28;20356;-72
2020/12/15 20:01:03;;;;;;;227.60;88.83;;;;;;;;;;8291245;28;20363;-73
2020/12/15 20:05:11;;;;;;;224.88;84.35;;;;;;;;;;8290339;28;20379;-73
2020/12/15 20:09:19;;;;;;;242.65;92.20;;;;;;;;;;8258152;28;20454;-72
2020/12/15 20:13:28;;;;;;;257.77;96.13;;;;;;;;;;8290284;28;20470;-72
2020/12/15 20:17:37;;;;;;;269.60;102.15;;;;;;;;;;8271157;28;20413;-72
2020/12/15 20:21:46;;;;;;;252.75;93.47;;;;;;;;;;8272417;28;20439;-72
2020/12/15 20:25:54;;;;;;;323.50;111.90;;;;;;;;;;8290124;28;20475;-72
2020/12/15 20:30:06;;;;;;;320.08;111.50;;;;;;;;;;8289737;28;20376;-73
2020/12/15 20:34:15;;;;;;;250.32;94.63;;;;;;;;;;8289780;28;20363;-73
2020/12/15 20:38:27;;;;;;;166.40;66.90;;;;;;;;;;4588014;28;20024866;-73
2020/12/15 20:42:37;;;;;;;221.77;83.77;;;;;;;;;;8289971;28;20094;-73
2020/12/15 20:46:45;;;;;;;284.90;107.38;;;;;;;;;;8273254;28;20064;-73
2020/12/15 20:50:53;;;;;;;327.35;115.97;;;;;;;;;;8271945;28;20364;-74
2020/12/15 20:55:02;;;;;;;288.38;105.13;;;;;;;;;;8204976;28;20368;-73
2020/12/15 20:59:10;;;;;;;238.15;86.72;;;;;;;;;;8251749;28;20234;-73
2020/12/15 21:03:18;;;;;;;208.00;78.38;;;;;;;;;;8252373;28;20041;-73
2020/12/15 21:07:31;;;;;;;221.35;81.15;;;;;;;;;;8252065;28;20383;-73
2020/12/15 21:11:39;;;;;;;238.20;83.10;;;;;;;;;;8235773;28;20383;-73
2020/12/15 21:15:47;;;;;;;237.10;82.53;;;;;;;;;;8237114;28;20514;-73
2020/12/15 21:19:55;;;;;;;201.03;69.07;;;;;;;;;;8252357;28;20503;-73
2020/12/15 21:24:03;;;;;;;204.60;68.63;;;;;;;;;;8259879;28;20429;-73
2020/12/15 21:28:11;;;;;;;187.65;68.43;;;;;;;;;;8289522;28;20455;-73
2020/12/15 21:32:19;;;;;;;146.43;55.85;;;;;;;;;;8272115;28;20356;-74
2020/12/15 21:36:22;;;;;;;156.32;58.70;;;;;;;;;;8253993;28;20382;-74
2020/12/15 21:40:29;;;;;;;154.52;56.08;;;;;;;;;;8252455;28;20379;-73
2020/12/15 21:44:40;;;;;;;163.27;60.40;;;;;;;;;;8251908;28;20387;-73
2020/12/15 21:48:44;;;;;;;157.00;55.15;;;;;;;;;;8252419;28;20376;-72
2020/12/15 21:52:48;;;;;;;147.48;51.78;;;;;;;;;;8257875;28;20515;-73
2020/12/15 21:56:52;;;;;;;143.70;53.00;;;;;;;;;;8242181;28;20360;-73
2020/12/15 22:00:55;;;;;;;145.77;56.65;;;;;;;;;;8257961;28;20414;-74
2020/12/15 22:04:59;;;;;;;168.15;57.08;;;;;;;;;;8257779;28;20045;-73
2020/12/15 22:09:02;;;;;;;151.90;55.53;;;;;;;;;;8260512;28;20490;-73
2020/12/15 22:13:05;;;;;;;167.15;56.78;;;;;;;;;;8294174;28;20048;-73
2020/12/15 22:17:08;;;;;;;163.88;56.13;;;;;;;;;;8275641;28;20467;-73
2020/12/15 22:21:11;;;;;;;171.20;56.35;;;;;;;;;;8294641;28;20451;-73
2020/12/15 22:25:14;;;;;;;261.98;69.88;;;;;;;;;;8261937;28;20406;-73
2020/12/15 22:29:17;;;;;;;178.48;58.83;;;;;;;;;;8293355;28;20478;-73
2020/12/15 22:33:22;;;;;;;176.93;60.15;;;;;;;;;;8293543;28;20398;-73
2020/12/15 22:37:25;;;;;;;172.23;57.90;;;;;;;;;;8293944;28;20352;-73
2020/12/15 22:41:30;;;;;;;194.55;61.95;;;;;;;;;;8275953;28;20382;-74
2020/12/15 22:45:33;;;;;;;187.15;60.17;;;;;;;;;;8275452;28;20463;-73
2020/12/15 22:49:36;;;;;;;190.35;63.90;;;;;;;;;;8275338;28;20470;-73
2020/12/15 22:53:40;;;;;;;182.13;63.95;;;;;;;;;;8275313;28;20521;-74
2020/12/15 22:57:43;;;;;;;195.10;64.13;;;;;;;;;;8275860;28;20064;-74
2020/12/15 23:01:46;;;;;;;175.15;61.58;;;;;;;;;;8274682;28;20360;-73
2020/12/15 23:05:49;;;;;;;170.38;55.38;;;;;;;;;;8292895;28;20467;-73
2020/12/15 23:09:52;;;;;;;141.13;48.90;;;;;;;;;;8274527;28;20453;-74
2020/12/15 23:13:55;;;;;;;119.55;38.25;;;;;;;;;;8292700;28;20379;-74
2020/12/15 23:17:58;;;;;;;102.07;36.78;;;;;;;;;;8292727;28;20505;-74
2020/12/15 23:22:01;;;;;;;86.00;33.90;;;;;;;;;;8274618;28;20463;-74
2020/12/15 23:26:04;;;;;;;83.57;35.40;;;;;;;;;;8291341;28;20429;-73
2020/12/15 23:30:12;;;;;;;83.40;33.72;;;;;;;;;;8291190;28;20377;-73
2020/12/15 23:34:19;;;;;;;93.10;35.28;;;;;;;;;;8292459;28;20478;-74
2020/12/15 23:38:22;;;;;;;102.93;36.20;;;;;;;;;;8292348;28;20414;-73
2020/12/15 23:42:24;;;;;;;97.95;35.95;;;;;;;;;;8292117;28;20379;-74
2020/12/15 23:46:31;;;;;;;85.15;31.50;;;;;;;;;;8273913;28;20040;-73